sensor_id;sensor_type;location;lat;lon;timestamp;P1;durP1;ratioP1;P2;durP2;ratioP2
21432;SDS011;18592;49.708;10.900;2023-04-25T00:01:23;1.52;;;1.40;;
21432;SDS011;18592;49.708;10.900;2023-04-25T00:03:24;1.52;;;1.40;;
21432;SDS011;18592;49.708;10.900;2023-04-25T00:05:26;2.10;;;1.63;;
21432;SDS011;18592;49.708;10.900;2023-04-25T00:07:28;1.67;;;1.58;;
21432;SDS011;18592;49.708;10.900;2023-04-25T00:09:29;1.98;;;1.10;;
21432;SDS011;18592;49.708;10.900;2023-04-25T00:11:31;1.65;;;1.40;;
21432;SDS011;18592;49.708;10.900;2023-04-25T00:13:33;1.50;;;1.40;;
21432;SDS011;18592;49.708;10.900;2023-04-25T00:15:34;1.70;;;1.30;;
21432;SDS011;18592;49.708;10.900;2023-04-25T00:17:37;1.40;;;1.30;;
21432;SDS011;18592;49.708;10.900;2023-04-25T00:19:39;1.55;;;1.20;;
21432;SDS011;18592;49.708;10.900;2023-04-25T00:21:41;1.38;;;1.27;;
21432;SDS011;18592;49.708;10.900;2023-04-25T00:23:42;2.75;;;1.20;;
21432;SDS011;18592;49.708;10.900;2023-04-25T00:25:45;2.35;;;1.30;;
21432;SDS011;18592;49.708;10.900;2023-04-25T00:27:47;1.50;;;1.40;;
21432;SDS011;18592;49.708;10.900;2023-04-25T00:29:48;2.33;;;1.63;;
21432;SDS011;18592;49.708;10.900;2023-04-25T00:31:50;1.42;;;1.27;;
21432;SDS011;18592;49.708;10.900;2023-04-25T00:33:52;1.58;;;1.35;;
21432;SDS011;18592;49.708;10.900;2023-04-25T00:35:54;2.00;;;1.35;;
21432;SDS011;18592;49.708;10.900;2023-04-25T00:37:57;1.33;;;1.05;;
21432;SDS011;18592;49.708;10.900;2023-04-25T00:39:59;1.10;;;1.00;;
21432;SDS011;18592;49.708;10.900;2023-04-25T00:42:00;1.48;;;1.23;;
21432;SDS011;18592;49.708;10.900;2023-04-25T00:44:03;2.25;;;1.10;;
21432;SDS011;18592;49.708;10.900;2023-04-25T00:46:05;1.33;;;1.23;;
21432;SDS011;18592;49.708;10.900;2023-04-25T00:48:06;3.17;;;1.45;;
21432;SDS011;18592;49.708;10.900;2023-04-25T00:50:08;1.42;;;1.33;;
21432;SDS011;18592;49.708;10.900;2023-04-25T00:52:11;1.48;;;1.38;;
21432;SDS011;18592;49.708;10.900;2023-04-25T00:54:13;1.30;;;1.20;;
21432;SDS011;18592;49.708;10.900;2023-04-25T00:56:15;1.67;;;1.13;;
21432;SDS011;18592;49.708;10.900;2023-04-25T00:58:18;1.67;;;1.50;;
21432;SDS011;18592;49.708;10.900;2023-04-25T01:00:20;1.20;;;1.10;;
21432;SDS011;18592;49.708;10.900;2023-04-25T01:02:22;1.30;;;1.20;;
21432;SDS011;18592;49.708;10.900;2023-04-25T01:04:25;2.47;;;1.50;;
21432;SDS011;18592;49.708;10.900;2023-04-25T01:06:28;1.60;;;1.23;;
21432;SDS011;18592;49.708;10.900;2023-04-25T01:08:30;1.45;;;1.35;;
21432;SDS011;18592;49.708;10.900;2023-04-25T01:10:32;1.38;;;1.20;;
21432;SDS011;18592;49.708;10.900;2023-04-25T01:12:34;2.40;;;1.30;;
21432;SDS011;18592;49.708;10.900;2023-04-25T01:14:35;1.30;;;1.20;;
21432;SDS011;18592;49.708;10.900;2023-04-25T01:16:39;1.40;;;1.30;;
21432;SDS011;18592;49.708;10.900;2023-04-25T01:18:41;1.73;;;1.23;;
21432;SDS011;18592;49.708;10.900;2023-04-25T01:20:43;1.20;;;1.10;;
21432;SDS011;18592;49.708;10.900;2023-04-25T01:22:46;1.33;;;1.15;;
21432;SDS011;18592;49.708;10.900;2023-04-25T01:24:48;1.20;;;1.10;;
21432;SDS011;18592;49.708;10.900;2023-04-25T01:26:50;1.10;;;1.00;;
21432;SDS011;18592;49.708;10.900;2023-04-25T01:28:57;0.80;;;0.80;;
21432;SDS011;18592;49.708;10.900;2023-04-25T01:31:00;1.17;;;1.08;;
21432;SDS011;18592;49.708;10.900;2023-04-25T01:33:02;1.20;;;1.10;;
21432;SDS011;18592;49.708;10.900;2023-04-25T01:35:06;1.20;;;1.02;;
21432;SDS011;18592;49.708;10.900;2023-04-25T01:37:12;1.77;;;1.13;;
21432;SDS011;18592;49.708;10.900;2023-04-25T01:39:13;1.13;;;1.02;;
21432;SDS011;18592;49.708;10.900;2023-04-25T01:41:15;0.80;;;0.80;;
21432;SDS011;18592;49.708;10.900;2023-04-25T01:43:18;1.65;;;1.10;;
21432;SDS011;18592;49.708;10.900;2023-04-25T01:45:19;1.20;;;1.10;;
21432;SDS011;18592;49.708;10.900;2023-04-25T01:47:22;2.33;;;1.27;;
21432;SDS011;18592;49.708;10.900;2023-04-25T01:49:24;1.35;;;1.17;;
21432;SDS011;18592;49.708;10.900;2023-04-25T01:51:25;1.35;;;1.17;;
21432;SDS011;18592;49.708;10.900;2023-04-25T01:53:28;1.20;;;1.10;;
21432;SDS011;18592;49.708;10.900;2023-04-25T01:55:30;1.27;;;1.00;;
21432;SDS011;18592;49.708;10.900;2023-04-25T01:57:39;1.23;;;1.13;;
21432;SDS011;18592;49.708;10.900;2023-04-25T01:59:42;1.67;;;1.50;;
21432;SDS011;18592;49.708;10.900;2023-04-25T02:02:10;2.25;;;1.20;;
21432;SDS011;18592;49.708;10.900;2023-04-25T02:04:12;1.40;;;1.30;;
21432;SDS011;18592;49.708;10.900;2023-04-25T02:06:15;1.35;;;1.25;;
21432;SDS011;18592;49.708;10.900;2023-04-25T02:08:19;1.17;;;1.10;;
21432;SDS011;18592;49.708;10.900;2023-04-25T02:10:21;1.55;;;1.25;;
21432;SDS011;18592;49.708;10.900;2023-04-25T02:12:29;1.58;;;1.40;;
21432;SDS011;18592;49.708;10.900;2023-04-25T02:14:47;1.77;;;1.50;;
21432;SDS011;18592;49.708;10.900;2023-04-25T02:16:53;1.10;;;1.00;;
21432;SDS011;18592;49.708;10.900;2023-04-25T02:18:55;1.50;;;1.40;;
21432;SDS011;18592;49.708;10.900;2023-04-25T02:20:58;1.92;;;1.00;;
21432;SDS011;18592;49.708;10.900;2023-04-25T02:23:00;1.40;;;1.10;;
21432;SDS011;18592;49.708;10.900;2023-04-25T02:25:02;1.67;;;1.42;;
21432;SDS011;18592;49.708;10.900;2023-04-25T02:27:05;1.20;;;1.10;;
21432;SDS011;18592;49.708;10.900;2023-04-25T02:29:09;1.45;;;1.35;;
21432;SDS011;18592;49.708;10.900;2023-04-25T02:31:11;1.23;;;1.13;;
21432;SDS011;18592;49.708;10.900;2023-04-25T02:33:13;1.30;;;1.20;;
21432;SDS011;18592;49.708;10.900;2023-04-25T02:35:14;1.30;;;1.20;;
21432;SDS011;18592;49.708;10.900;2023-04-25T02:37:16;1.50;;;1.40;;
21432;SDS011;18592;49.708;10.900;2023-04-25T02:39:19;1.48;;;1.38;;
21432;SDS011;18592;49.708;10.900;2023-04-25T02:41:20;1.48;;;1.35;;
21432;SDS011;18592;49.708;10.900;2023-04-25T02:43:22;1.10;;;1.00;;
21432;SDS011;18592;49.708;10.900;2023-04-25T02:45:25;2.05;;;1.52;;
21432;SDS011;18592;49.708;10.900;2023-04-25T02:47:27;2.42;;;1.45;;
21432;SDS011;18592;49.708;10.900;2023-04-25T02:49:29;1.58;;;1.48;;
21432;SDS011;18592;49.708;10.900;2023-04-25T02:51:30;1.60;;;1.50;;
21432;SDS011;18592;49.708;10.900;2023-04-25T02:53:32;2.58;;;2.10;;
21432;SDS011;18592;49.708;10.900;2023-04-25T02:55:33;1.75;;;1.65;;
21432;SDS011;18592;49.708;10.900;2023-04-25T02:57:37;2.20;;;2.00;;
21432;SDS011;18592;49.708;10.900;2023-04-25T02:59:39;2.00;;;1.83;;
21432;SDS011;18592;49.708;10.900;2023-04-25T03:01:40;1.70;;;1.60;;
21432;SDS011;18592;49.708;10.900;2023-04-25T03:03:42;2.25;;;1.90;;
21432;SDS011;18592;49.708;10.900;2023-04-25T03:05:44;2.58;;;2.17;;
21432;SDS011;18592;49.708;10.900;2023-04-25T03:07:46;2.15;;;1.80;;
21432;SDS011;18592;49.708;10.900;2023-04-25T03:09:49;2.00;;;1.67;;
21432;SDS011;18592;49.708;10.900;2023-04-25T03:11:51;1.77;;;1.60;;
21432;SDS011;18592;49.708;10.900;2023-04-25T03:13:53;1.90;;;1.70;;
21432;SDS011;18592;49.708;10.900;2023-04-25T03:15:54;1.92;;;1.48;;
21432;SDS011;18592;49.708;10.900;2023-04-25T03:17:56;1.90;;;1.70;;
21432;SDS011;18592;49.708;10.900;2023-04-25T03:19:58;1.88;;;1.70;;
21432;SDS011;18592;49.708;10.900;2023-04-25T03:21:59;1.83;;;1.67;;
21432;SDS011;18592;49.708;10.900;2023-04-25T03:24:02;1.75;;;1.65;;
21432;SDS011;18592;49.708;10.900;2023-04-25T03:26:05;2.53;;;1.95;;
21432;SDS011;18592;49.708;10.900;2023-04-25T03:28:07;1.90;;;1.70;;
21432;SDS011;18592;49.708;10.900;2023-04-25T03:30:08;1.80;;;1.50;;
21432;SDS011;18592;49.708;10.900;2023-04-25T03:32:11;1.45;;;1.30;;
21432;SDS011;18592;49.708;10.900;2023-04-25T03:34:13;1.67;;;1.50;;
21432;SDS011;18592;49.708;10.900;2023-04-25T03:36:16;1.42;;;1.30;;
21432;SDS011;18592;49.708;10.900;2023-04-25T03:38:17;1.55;;;1.20;;
21432;SDS011;18592;49.708;10.900;2023-04-25T03:40:19;1.30;;;1.20;;
21432;SDS011;18592;49.708;10.900;2023-04-25T03:42:41;1.40;;;1.27;;
21432;SDS011;18592;49.708;10.900;2023-04-25T03:44:46;1.90;;;1.40;;
21432;SDS011;18592;49.708;10.900;2023-04-25T03:46:48;1.23;;;1.05;;
21432;SDS011;18592;49.708;10.900;2023-04-25T03:48:49;1.50;;;1.40;;
21432;SDS011;18592;49.708;10.900;2023-04-25T03:50:55;1.35;;;1.25;;
21432;SDS011;18592;49.708;10.900;2023-04-25T03:52:57;1.55;;;1.45;;
21432;SDS011;18592;49.708;10.900;2023-04-25T03:55:02;1.50;;;1.30;;
21432;SDS011;18592;49.708;10.900;2023-04-25T03:57:03;1.55;;;1.45;;
21432;SDS011;18592;49.708;10.900;2023-04-25T03:59:08;1.48;;;1.38;;
21432;SDS011;18592;49.708;10.900;2023-04-25T04:01:09;1.73;;;1.63;;
21432;SDS011;18592;49.708;10.900;2023-04-25T04:03:13;2.35;;;1.60;;
21432;SDS011;18592;49.708;10.900;2023-04-25T04:05:14;1.55;;;1.45;;
21432;SDS011;18592;49.708;10.900;2023-04-25T04:07:23;1.80;;;1.48;;
21432;SDS011;18592;49.708;10.900;2023-04-25T04:09:28;1.48;;;1.38;;
21432;SDS011;18592;49.708;10.900;2023-04-25T04:11:31;2.03;;;1.40;;
21432;SDS011;18592;49.708;10.900;2023-04-25T04:13:33;1.38;;;1.27;;
21432;SDS011;18592;49.708;10.900;2023-04-25T04:15:36;1.33;;;1.20;;
21432;SDS011;18592;49.708;10.900;2023-04-25T04:17:37;1.02;;;0.90;;
21432;SDS011;18592;49.708;10.900;2023-04-25T04:19:39;1.50;;;1.23;;
21432;SDS011;18592;49.708;10.900;2023-04-25T04:21:46;1.23;;;1.13;;
21432;SDS011;18592;49.708;10.900;2023-04-25T04:23:48;1.35;;;1.08;;
21432;SDS011;18592;49.708;10.900;2023-04-25T04:25:50;1.98;;;1.40;;
21432;SDS011;18592;49.708;10.900;2023-04-25T04:28:03;1.60;;;1.25;;
21432;SDS011;18592;49.708;10.900;2023-04-25T04:30:14;1.40;;;1.30;;
21432;SDS011;18592;49.708;10.900;2023-04-25T04:32:27;1.25;;;1.15;;
21432;SDS011;18592;49.708;10.900;2023-04-25T04:34:31;1.25;;;1.08;;
21432;SDS011;18592;49.708;10.900;2023-04-25T04:36:35;1.95;;;1.65;;
21432;SDS011;18592;49.708;10.900;2023-04-25T04:38:37;2.13;;;1.38;;
21432;SDS011;18592;49.708;10.900;2023-04-25T04:40:43;1.30;;;1.10;;
21432;SDS011;18592;49.708;10.900;2023-04-25T04:43:03;1.20;;;1.10;;
21432;SDS011;18592;49.708;10.900;2023-04-25T04:45:05;1.30;;;1.20;;
21432;SDS011;18592;49.708;10.900;2023-04-25T04:47:23;1.33;;;1.10;;
21432;SDS011;18592;49.708;10.900;2023-04-25T04:49:36;1.65;;;1.17;;
21432;SDS011;18592;49.708;10.900;2023-04-25T04:52:04;1.30;;;1.00;;
21432;SDS011;18592;49.708;10.900;2023-04-25T04:54:35;2.05;;;1.17;;
21432;SDS011;18592;49.708;10.900;2023-04-25T04:57:01;0.93;;;0.80;;
21432;SDS011;18592;49.708;10.900;2023-04-25T04:59:24;1.02;;;0.80;;
21432;SDS011;18592;49.708;10.900;2023-04-25T05:01:49;1.35;;;0.90;;
21432;SDS011;18592;49.708;10.900;2023-04-25T05:03:51;1.55;;;1.20;;
21432;SDS011;18592;49.708;10.900;2023-04-25T05:06:12;0.80;;;0.80;;
21432;SDS011;18592;49.708;10.900;2023-04-25T05:08:33;1.20;;;1.10;;
21432;SDS011;18592;49.708;10.900;2023-04-25T05:10:43;1.52;;;1.00;;
21432;SDS011;18592;49.708;10.900;2023-04-25T05:12:53;1.20;;;1.05;;
21432;SDS011;18592;49.708;10.900;2023-04-25T05:15:13;1.55;;;1.17;;
21432;SDS011;18592;49.708;10.900;2023-04-25T05:17:35;1.92;;;1.10;;
21432;SDS011;18592;49.708;10.900;2023-04-25T05:19:54;2.03;;;1.17;;
21432;SDS011;18592;49.708;10.900;2023-04-25T05:22:08;4.57;;;1.10;;
21432;SDS011;18592;49.708;10.900;2023-04-25T05:24:29;1.48;;;1.05;;
21432;SDS011;18592;49.708;10.900;2023-04-25T05:26:45;2.05;;;1.17;;
21432;SDS011;18592;49.708;10.900;2023-04-25T05:28:57;1.20;;;1.10;;
21432;SDS011;18592;49.708;10.900;2023-04-25T05:31:10;1.92;;;1.38;;
21432;SDS011;18592;49.708;10.900;2023-04-25T05:33:20;2.80;;;1.10;;
21432;SDS011;18592;49.708;10.900;2023-04-25T05:35:21;1.90;;;0.90;;
21432;SDS011;18592;49.708;10.900;2023-04-25T05:37:24;1.38;;;1.27;;
21432;SDS011;18592;49.708;10.900;2023-04-25T05:39:29;1.50;;;1.00;;
21432;SDS011;18592;49.708;10.900;2023-04-25T05:41:37;1.90;;;1.17;;
21432;SDS011;18592;49.708;10.900;2023-04-25T05:43:59;1.23;;;0.88;;
21432;SDS011;18592;49.708;10.900;2023-04-25T05:46:07;1.15;;;1.05;;
21432;SDS011;18592;49.708;10.900;2023-04-25T05:48:24;2.63;;;1.10;;
21432;SDS011;18592;49.708;10.900;2023-04-25T05:50:36;1.30;;;1.20;;
21432;SDS011;18592;49.708;10.900;2023-04-25T05:52:49;1.27;;;1.17;;
21432;SDS011;18592;49.708;10.900;2023-04-25T05:55:11;1.25;;;1.00;;
21432;SDS011;18592;49.708;10.900;2023-04-25T05:57:20;2.33;;;1.10;;
21432;SDS011;18592;49.708;10.900;2023-04-25T05:59:24;1.42;;;1.00;;
21432;SDS011;18592;49.708;10.900;2023-04-25T06:01:26;1.08;;;1.00;;
21432;SDS011;18592;49.708;10.900;2023-04-25T06:03:27;1.98;;;1.25;;
21432;SDS011;18592;49.708;10.900;2023-04-25T06:05:31;1.20;;;1.00;;
21432;SDS011;18592;49.708;10.900;2023-04-25T06:07:33;2.30;;;1.27;;
21432;SDS011;18592;49.708;10.900;2023-04-25T06:09:36;1.02;;;1.00;;
21432;SDS011;18592;49.708;10.900;2023-04-25T06:11:40;1.98;;;1.20;;
21432;SDS011;18592;49.708;10.900;2023-04-25T06:13:41;1.17;;;1.05;;
21432;SDS011;18592;49.708;10.900;2023-04-25T06:15:43;1.58;;;1.40;;
21432;SDS011;18592;49.708;10.900;2023-04-25T06:17:45;1.45;;;1.10;;
21432;SDS011;18592;49.708;10.900;2023-04-25T06:19:47;1.23;;;1.13;;
21432;SDS011;18592;49.708;10.900;2023-04-25T06:21:48;1.70;;;1.10;;
21432;SDS011;18592;49.708;10.900;2023-04-25T06:23:50;1.50;;;1.30;;
21432;SDS011;18592;49.708;10.900;2023-04-25T06:25:55;1.35;;;1.25;;
21432;SDS011;18592;49.708;10.900;2023-04-25T06:27:58;3.05;;;1.42;;
21432;SDS011;18592;49.708;10.900;2023-04-25T06:29:59;1.38;;;1.27;;
21432;SDS011;18592;49.708;10.900;2023-04-25T06:32:02;1.77;;;1.60;;
21432;SDS011;18592;49.708;10.900;2023-04-25T06:34:03;4.30;;;1.52;;
21432;SDS011;18592;49.708;10.900;2023-04-25T06:36:09;2.00;;;1.20;;
21432;SDS011;18592;49.708;10.900;2023-04-25T06:38:12;1.88;;;1.20;;
21432;SDS011;18592;49.708;10.900;2023-04-25T06:40:18;2.67;;;1.45;;
21432;SDS011;18592;49.708;10.900;2023-04-25T06:42:20;1.52;;;1.30;;
21432;SDS011;18592;49.708;10.900;2023-04-25T06:44:31;1.60;;;1.40;;
21432;SDS011;18592;49.708;10.900;2023-04-25T06:46:33;2.17;;;1.60;;
21432;SDS011;18592;49.708;10.900;2023-04-25T06:48:34;1.25;;;1.15;;
21432;SDS011;18592;49.708;10.900;2023-04-25T06:50:36;1.48;;;1.38;;
21432;SDS011;18592;49.708;10.900;2023-04-25T06:52:37;1.40;;;1.10;;
21432;SDS011;18592;49.708;10.900;2023-04-25T06:54:39;1.40;;;1.30;;
21432;SDS011;18592;49.708;10.900;2023-04-25T06:56:53;1.63;;;1.27;;
21432;SDS011;18592;49.708;10.900;2023-04-25T06:58:55;2.17;;;1.50;;
21432;SDS011;18592;49.708;10.900;2023-04-25T07:01:26;3.20;;;1.63;;
21432;SDS011;18592;49.708;10.900;2023-04-25T07:03:28;1.90;;;1.38;;
21432;SDS011;18592;49.708;10.900;2023-04-25T07:05:34;2.05;;;1.50;;
21432;SDS011;18592;49.708;10.900;2023-04-25T07:07:36;1.75;;;1.40;;
21432;SDS011;18592;49.708;10.900;2023-04-25T07:09:37;2.22;;;1.50;;
21432;SDS011;18592;49.708;10.900;2023-04-25T07:11:39;1.55;;;1.40;;
21432;SDS011;18592;49.708;10.900;2023-04-25T07:13:41;2.28;;;1.55;;
21432;SDS011;18592;49.708;10.900;2023-04-25T07:15:43;2.70;;;1.20;;
21432;SDS011;18592;49.708;10.900;2023-04-25T07:17:45;1.50;;;1.40;;
21432;SDS011;18592;49.708;10.900;2023-04-25T07:19:47;1.77;;;1.58;;
21432;SDS011;18592;49.708;10.900;2023-04-25T07:21:48;1.92;;;1.25;;
21432;SDS011;18592;49.708;10.900;2023-04-25T07:23:52;1.60;;;1.50;;
21432;SDS011;18592;49.708;10.900;2023-04-25T07:25:59;1.60;;;1.40;;
21432;SDS011;18592;49.708;10.900;2023-04-25T07:28:01;2.05;;;1.48;;
21432;SDS011;18592;49.708;10.900;2023-04-25T07:30:03;2.10;;;1.70;;
21432;SDS011;18592;49.708;10.900;2023-04-25T07:32:06;2.05;;;1.52;;
21432;SDS011;18592;49.708;10.900;2023-04-25T07:34:08;1.30;;;1.20;;
21432;SDS011;18592;49.708;10.900;2023-04-25T07:36:12;2.03;;;1.52;;
21432;SDS011;18592;49.708;10.900;2023-04-25T07:38:14;1.63;;;1.30;;
21432;SDS011;18592;49.708;10.900;2023-04-25T07:40:15;2.13;;;1.08;;
21432;SDS011;18592;49.708;10.900;2023-04-25T07:42:21;2.25;;;1.30;;
21432;SDS011;18592;49.708;10.900;2023-04-25T07:44:23;1.42;;;1.33;;
21432;SDS011;18592;49.708;10.900;2023-04-25T07:46:25;1.30;;;1.20;;
21432;SDS011;18592;49.708;10.900;2023-04-25T07:48:27;1.55;;;1.25;;
21432;SDS011;18592;49.708;10.900;2023-04-25T07:50:30;1.75;;;1.13;;
21432;SDS011;18592;49.708;10.900;2023-04-25T07:52:32;2.10;;;1.45;;
21432;SDS011;18592;49.708;10.900;2023-04-25T07:54:41;1.50;;;1.30;;
21432;SDS011;18592;49.708;10.900;2023-04-25T07:56:49;2.00;;;1.48;;
21432;SDS011;18592;49.708;10.900;2023-04-25T07:58:57;2.47;;;1.77;;
21432;SDS011;18592;49.708;10.900;2023-04-25T08:00:59;1.70;;;1.58;;
21432;SDS011;18592;49.708;10.900;2023-04-25T08:03:22;2.15;;;1.40;;
21432;SDS011;18592;49.708;10.900;2023-04-25T08:05:24;2.30;;;1.50;;
21432;SDS011;18592;49.708;10.900;2023-04-25T08:07:34;1.58;;;1.30;;
21432;SDS011;18592;49.708;10.900;2023-04-25T08:09:38;2.85;;;1.52;;
21432;SDS011;18592;49.708;10.900;2023-04-25T08:11:45;1.73;;;1.27;;
21432;SDS011;18592;49.708;10.900;2023-04-25T08:13:50;1.90;;;1.40;;
21432;SDS011;18592;49.708;10.900;2023-04-25T08:15:51;1.40;;;1.30;;
21432;SDS011;18592;49.708;10.900;2023-04-25T08:17:53;1.40;;;1.23;;
21432;SDS011;18592;49.708;10.900;2023-04-25T08:19:55;1.63;;;1.30;;
21432;SDS011;18592;49.708;10.900;2023-04-25T08:22:01;2.28;;;1.60;;
21432;SDS011;18592;49.708;10.900;2023-04-25T08:24:11;2.75;;;1.50;;
21432;SDS011;18592;49.708;10.900;2023-04-25T08:26:14;2.88;;;1.48;;
21432;SDS011;18592;49.708;10.900;2023-04-25T08:28:17;1.50;;;1.40;;
21432;SDS011;18592;49.708;10.900;2023-04-25T08:30:19;2.55;;;1.55;;
21432;SDS011;18592;49.708;10.900;2023-04-25T08:32:20;2.08;;;1.50;;
21432;SDS011;18592;49.708;10.900;2023-04-25T08:34:41;1.30;;;1.20;;
21432;SDS011;18592;49.708;10.900;2023-04-25T08:36:44;1.33;;;1.23;;
21432;SDS011;18592;49.708;10.900;2023-04-25T08:39:04;1.50;;;1.30;;
21432;SDS011;18592;49.708;10.900;2023-04-25T08:41:12;1.30;;;1.20;;
21432;SDS011;18592;49.708;10.900;2023-04-25T08:43:14;1.42;;;1.30;;
21432;SDS011;18592;49.708;10.900;2023-04-25T08:45:19;1.67;;;1.50;;
21432;SDS011;18592;49.708;10.900;2023-04-25T08:47:21;2.42;;;1.58;;
21432;SDS011;18592;49.708;10.900;2023-04-25T08:49:29;1.80;;;1.40;;
21432;SDS011;18592;49.708;10.900;2023-04-25T08:51:33;1.48;;;1.30;;
21432;SDS011;18592;49.708;10.900;2023-04-25T08:53:38;1.85;;;1.70;;
21432;SDS011;18592;49.708;10.900;2023-04-25T08:55:43;1.60;;;1.50;;
21432;SDS011;18592;49.708;10.900;2023-04-25T08:57:47;1.48;;;1.30;;
21432;SDS011;18592;49.708;10.900;2023-04-25T08:59:51;2.08;;;1.38;;
21432;SDS011;18592;49.708;10.900;2023-04-25T09:01:54;2.13;;;1.00;;
21432;SDS011;18592;49.708;10.900;2023-04-25T09:03:57;1.20;;;1.10;;
21432;SDS011;18592;49.708;10.900;2023-04-25T09:05:58;1.63;;;1.00;;
21432;SDS011;18592;49.708;10.900;2023-04-25T09:08:01;1.30;;;1.20;;
21432;SDS011;18592;49.708;10.900;2023-04-25T09:10:03;1.23;;;0.98;;
21432;SDS011;18592;49.708;10.900;2023-04-25T09:12:08;1.33;;;1.10;;
21432;SDS011;18592;49.708;10.900;2023-04-25T09:14:11;1.20;;;1.05;;
21432;SDS011;18592;49.708;10.900;2023-04-25T09:16:35;2.28;;;1.20;;
21432;SDS011;18592;49.708;10.900;2023-04-25T09:19:06;2.13;;;1.23;;
21432;SDS011;18592;49.708;10.900;2023-04-25T09:21:09;2.08;;;1.30;;
21432;SDS011;18592;49.708;10.900;2023-04-25T09:23:17;1.10;;;1.00;;
21432;SDS011;18592;49.708;10.900;2023-04-25T09:25:22;2.97;;;1.02;;
21432;SDS011;18592;49.708;10.900;2023-04-25T09:27:26;0.80;;;0.80;;
21432;SDS011;18592;49.708;10.900;2023-04-25T09:29:56;1.20;;;1.10;;
21432;SDS011;18592;49.708;10.900;2023-04-25T09:32:11;1.10;;;0.90;;
21432;SDS011;18592;49.708;10.900;2023-04-25T09:34:16;1.20;;;1.10;;
21432;SDS011;18592;49.708;10.900;2023-04-25T09:36:26;2.15;;;1.45;;
21432;SDS011;18592;49.708;10.900;2023-04-25T09:39:12;1.90;;;1.13;;
21432;SDS011;18592;49.708;10.900;2023-04-25T09:41:23;1.25;;;1.10;;
21432;SDS011;18592;49.708;10.900;2023-04-25T09:43:28;3.80;;;1.10;;
21432;SDS011;18592;49.708;10.900;2023-04-25T09:45:30;2.35;;;1.02;;
21432;SDS011;18592;49.708;10.900;2023-04-25T09:47:36;1.98;;;0.95;;
21432;SDS011;18592;49.708;10.900;2023-04-25T09:49:40;1.70;;;0.90;;
21432;SDS011;18592;49.708;10.900;2023-04-25T09:51:56;1.77;;;1.20;;
21432;SDS011;18592;49.708;10.900;2023-04-25T09:54:01;2.13;;;1.05;;
21432;SDS011;18592;49.708;10.900;2023-04-25T09:56:10;0.93;;;0.90;;
21432;SDS011;18592;49.708;10.900;2023-04-25T09:58:13;1.88;;;0.93;;
21432;SDS011;18592;49.708;10.900;2023-04-25T10:00:16;1.10;;;1.00;;
21432;SDS011;18592;49.708;10.900;2023-04-25T10:02:19;1.17;;;1.00;;
21432;SDS011;18592;49.708;10.900;2023-04-25T10:04:29;1.85;;;1.00;;
21432;SDS011;18592;49.708;10.900;2023-04-25T10:06:39;2.30;;;1.30;;
21432;SDS011;18592;49.708;10.900;2023-04-25T10:08:44;1.45;;;0.93;;
21432;SDS011;18592;49.708;10.900;2023-04-25T10:10:48;1.10;;;1.00;;
21432;SDS011;18592;49.708;10.900;2023-04-25T10:12:51;1.73;;;1.00;;
21432;SDS011;18592;49.708;10.900;2023-04-25T10:14:54;1.67;;;1.10;;
21432;SDS011;18592;49.708;10.900;2023-04-25T10:16:57;1.73;;;1.10;;
21432;SDS011;18592;49.708;10.900;2023-04-25T10:18:59;1.95;;;1.30;;
21432;SDS011;18592;49.708;10.900;2023-04-25T10:21:02;1.73;;;1.15;;
21432;SDS011;18592;49.708;10.900;2023-04-25T10:23:08;0.98;;;0.90;;
21432;SDS011;18592;49.708;10.900;2023-04-25T10:25:14;2.08;;;1.40;;
21432;SDS011;18592;49.708;10.900;2023-04-25T10:27:16;1.10;;;1.00;;
21432;SDS011;18592;49.708;10.900;2023-04-25T10:29:21;1.63;;;1.10;;
21432;SDS011;18592;49.708;10.900;2023-04-25T10:31:27;1.02;;;0.93;;
21432;SDS011;18592;49.708;10.900;2023-04-25T10:33:35;2.05;;;0.80;;
21432;SDS011;18592;49.708;10.900;2023-04-25T10:35:38;0.95;;;0.85;;
21432;SDS011;18592;49.708;10.900;2023-04-25T10:37:56;1.10;;;1.00;;
21432;SDS011;18592;49.708;10.900;2023-04-25T10:40:14;1.10;;;0.90;;
21432;SDS011;18592;49.708;10.900;2023-04-25T10:42:23;1.42;;;0.90;;
21432;SDS011;18592;49.708;10.900;2023-04-25T10:44:28;1.08;;;0.98;;
21432;SDS011;18592;49.708;10.900;2023-04-25T10:46:31;1.50;;;1.10;;
21432;SDS011;18592;49.708;10.900;2023-04-25T10:48:35;2.63;;;1.10;;
21432;SDS011;18592;49.708;10.900;2023-04-25T10:50:37;1.20;;;1.00;;
21432;SDS011;18592;49.708;10.900;2023-04-25T10:52:40;0.80;;;0.80;;
21432;SDS011;18592;49.708;10.900;2023-04-25T10:54:48;1.65;;;0.95;;
21432;SDS011;18592;49.708;10.900;2023-04-25T10:56:52;1.90;;;1.05;;
21432;SDS011;18592;49.708;10.900;2023-04-25T10:59:04;1.05;;;1.00;;
21432;SDS011;18592;49.708;10.900;2023-04-25T11:01:13;1.40;;;0.90;;
21432;SDS011;18592;49.708;10.900;2023-04-25T11:03:16;0.90;;;0.80;;
21432;SDS011;18592;49.708;10.900;2023-04-25T11:05:34;1.10;;;1.00;;
21432;SDS011;18592;49.708;10.900;2023-04-25T11:07:57;0.80;;;0.80;;
21432;SDS011;18592;49.708;10.900;2023-04-25T11:10:08;1.58;;;0.90;;
21432;SDS011;18592;49.708;10.900;2023-04-25T11:12:10;1.33;;;1.00;;
21432;SDS011;18592;49.708;10.900;2023-04-25T11:14:13;0.93;;;0.70;;
21432;SDS011;18592;49.708;10.900;2023-04-25T11:16:14;1.05;;;0.88;;
21432;SDS011;18592;49.708;10.900;2023-04-25T11:18:27;1.10;;;0.70;;
21432;SDS011;18592;49.708;10.900;2023-04-25T11:20:29;1.15;;;0.90;;
21432;SDS011;18592;49.708;10.900;2023-04-25T11:22:31;1.15;;;0.90;;
21432;SDS011;18592;49.708;10.900;2023-04-25T11:24:33;0.70;;;0.70;;
21432;SDS011;18592;49.708;10.900;2023-04-25T11:26:36;1.50;;;0.70;;
21432;SDS011;18592;49.708;10.900;2023-04-25T11:28:38;1.52;;;1.00;;
21432;SDS011;18592;49.708;10.900;2023-04-25T11:30:40;1.10;;;0.90;;
21432;SDS011;18592;49.708;10.900;2023-04-25T11:32:49;0.93;;;0.80;;
21432;SDS011;18592;49.708;10.900;2023-04-25T11:34:53;1.02;;;0.70;;
21432;SDS011;18592;49.708;10.900;2023-04-25T11:36:54;1.17;;;1.00;;
21432;SDS011;18592;49.708;10.900;2023-04-25T11:38:56;0.98;;;0.80;;
21432;SDS011;18592;49.708;10.900;2023-04-25T11:40:58;1.00;;;0.90;;
21432;SDS011;18592;49.708;10.900;2023-04-25T11:42:59;1.05;;;0.82;;
21432;SDS011;18592;49.708;10.900;2023-04-25T11:45:02;1.02;;;0.80;;
21432;SDS011;18592;49.708;10.900;2023-04-25T11:47:05;0.80;;;0.75;;
21432;SDS011;18592;49.708;10.900;2023-04-25T11:49:06;0.80;;;0.80;;
21432;SDS011;18592;49.708;10.900;2023-04-25T11:51:08;0.80;;;0.80;;
21432;SDS011;18592;49.708;10.900;2023-04-25T11:53:10;0.90;;;0.80;;
21432;SDS011;18592;49.708;10.900;2023-04-25T11:55:15;0.95;;;0.75;;
21432;SDS011;18592;49.708;10.900;2023-04-25T11:57:19;0.82;;;0.80;;
21432;SDS011;18592;49.708;10.900;2023-04-25T11:59:24;1.08;;;0.93;;
21432;SDS011;18592;49.708;10.900;2023-04-25T12:03:32;2.13;;;0.80;;
21432;SDS011;18592;49.708;10.900;2023-04-25T12:05:34;0.93;;;0.90;;
21432;SDS011;18592;49.708;10.900;2023-04-25T12:07:36;0.80;;;0.80;;
21432;SDS011;18592;49.708;10.900;2023-04-25T12:09:40;1.13;;;0.90;;
21432;SDS011;18592;49.708;10.900;2023-04-25T12:11:46;1.15;;;0.98;;
21432;SDS011;18592;49.708;10.900;2023-04-25T12:14:06;1.00;;;0.80;;
21432;SDS011;18592;49.708;10.900;2023-04-25T12:16:07;1.08;;;0.82;;
21432;SDS011;18592;49.708;10.900;2023-04-25T12:18:09;1.00;;;0.90;;
21432;SDS011;18592;49.708;10.900;2023-04-25T12:20:12;1.75;;;1.02;;
21432;SDS011;18592;49.708;10.900;2023-04-25T12:22:22;0.70;;;0.70;;
21432;SDS011;18592;49.708;10.900;2023-04-25T12:24:25;1.00;;;0.90;;
21432;SDS011;18592;49.708;10.900;2023-04-25T12:26:45;1.08;;;0.73;;